• Join FlightAware (Why Join?)
  • Login
  • US Flag 
Rudolph Flight #1: Arrived! 
03:11AM EST


 

Airport Tracker/Info


-or-


 

Live Flight TrackerFlight Track Log ✈ QFA1129 ✈ 12-Aug-2014 ✈ YPPD / PHE - YPPH / PER

Flight Track Log - Related Links

Times and Time Zones

All times are in EDT time to prevent confusion due to time zone crossing. See the QFA1129 flight status page for this flight to view local times or setup timezone preferences in your user account.

Time Position Orientation Groundspeed Altitude Reporting Facility
EDT Latitude Longitude Course Direction KTS MPH feet Rate Location/Type
01:47AM -20.4810 118.6076 190° South 37,400  Level Aus ATC (Calculated)
01:48AM -20.5776 118.5900 190° South 37,400 -2,400 Level Aus ATC (Calculated)
01:50AM -20.7759 118.5536 190° South  Level FlightAware Approximate
01:50AM -20.7589 118.5567 190° South 37,400  Level Aus ATC (Calculated)
01:51AM -20.8382 118.5422 189° South 37,400 -4,080 Level Aus ATC (Calculated)
01:53AM -21.0365 118.5057 190° South  Level FlightAware Approximate
01:53AM -20.9868 118.5148 45° Northeast 37,400  Level Aus ATC (Calculated)
01:54AM -20.9857 118.5160 190° South 374 430 19,900 -9,060 Descending Aus ATC (RADAR)
01:54AM -21.0202 118.5080 192° South 373 429 20,800 2,700 Climbing Aus ATC (RADAR)
01:55AM -21.0821 118.4970 189° South 375 432 22,300 2,460 Climbing Aus ATC (RADAR)
01:56AM -21.1711 118.4809 190° South 379 436 24,300 2,160 Climbing Aus ATC (RADAR)
01:56AM -21.2336 118.4692 190° South 384 442 25,400 1,920 Climbing Aus ATC (RADAR)
01:57AM -21.3261 118.4525 190° South 395 455 27,000 1,920 Climbing Aus ATC (RADAR)
01:57AM -21.3542 118.4474 190° South 397 457 27,500 1,740 Climbing Aus ATC (RADAR)
01:59AM -21.4959 118.4213 190° South 406 467 29,700 1,620 Climbing Aus ATC (RADAR)
01:59AM -21.5434 118.4119 190° South 409 471 30,300 1,200 Climbing Aus ATC (RADAR)
02:00AM -21.5922 118.4029 190° South 417 480 30,700 900 Climbing Aus ATC (RADAR)
02:00AM -21.6729 118.3885 189° South 433 498 31,300 1,200 Climbing Aus ATC (RADAR)
02:01AM -21.7653 118.3714 190° South 440 506 32,400 1,740 Climbing Aus ATC (RADAR)
02:01AM -21.8265 118.3602 190° South 437 503 33,500 1,920 Climbing Aus ATC (RADAR)
02:02AM -21.9451 118.3381 190° South 424 488 35,300 1,440 Climbing Aus ATC (RADAR)
02:03AM -22.0040 118.3267 190° South 426 490 35,700 960 Climbing Aus ATC (RADAR)
02:05AM -22.2070 118.2896 190° South 437 503 37,500 1,080 Climbing Aus ATC (RADAR)
02:05AM -22.2370 118.2841 190° South 436 502 37,800 1,380 Climbing Aus ATC (RADAR)
02:06AM -22.3171 118.2695 190° South 430 495 38,800 1,080 Climbing Aus ATC (RADAR)
02:07AM -22.4627 118.2423 190° South 421 484 39,900 540 Climbing Aus ATC (RADAR)
02:08AM -22.5910 118.2187 190° South 427 491 40,100 120 Climbing Aus ATC (RADAR)
02:08AM -22.6304 118.2111 190° South 427 491 40,100 60 Level Aus ATC (RADAR)
02:10AM -22.8282 118.1744 190° South 430 495 40,300 60 Climbing Aus ATC (RADAR)
02:10AM -22.8679 118.1673 189° South 430 495 40,300  Level Aus ATC (RADAR)
02:11AM -22.9366 118.1538 190° South 429 494 40,300  Level Aus ATC (RADAR)
02:12AM -23.0456 118.1335 190° South 429 494 40,300  Level Aus ATC (RADAR)
02:12AM -23.1153 118.1207 190° South 430 495 40,300  Level Aus ATC (RADAR)
02:13AM -23.2142 118.1024 190° South 429 494 40,300  Level Aus ATC (RADAR)
02:14AM -23.3411 118.0784 190° South 425 489 40,300  Level Aus ATC (RADAR)
02:15AM -23.4094 118.0655 190° South 423 487 40,300  Level Aus ATC (RADAR)
02:15AM -23.4485 118.0581 190° South 423 487 40,300  Level Aus ATC (RADAR)
02:16AM -23.4966 118.0490 190° South 421 484 40,300  Level Aus ATC (RADAR)
02:17AM -23.6129 118.0268 190° South 421 484 40,300  Level Aus ATC (RADAR)
02:17AM -23.6420 118.0212 190° South 421 484 40,300  Level Aus ATC (RADAR)
02:17AM -23.7097 118.0081 190° South 421 484 40,300  Level Aus ATC (RADAR)
02:18AM -23.8064 117.9894 190° South 421 484 40,300 -480 Level Aus ATC (RADAR)
02:19AM -23.9221 117.9673 190° South 421 484 39,500 -720 Descending Aus ATC (RADAR)
02:20AM -23.9899 117.9544 190° South 422 486 39,200 -600 Descending Aus ATC (RADAR)
02:20AM -24.0190 117.9491 190° South 422 486 39,000 -780 Descending Aus ATC (RADAR)
02:21AM -24.0970 117.9340 190° South 425 489 38,500 -480 Descending Aus ATC (RADAR)
02:22AM -24.2141 117.9114 190° South 424 488 38,300 -180 Descending Aus ATC (RADAR)
02:22AM -24.2919 117.8959 190° South 424 488 38,300  Level Aus ATC (RADAR)
02:23AM -24.4085 117.8737 190° South 423 487 38,300  Level Aus ATC (RADAR)
02:25AM -24.6511 117.8275 190° South 423 487 38,400  Climbing Aus ATC (RADAR)
02:26AM -24.6901 117.8191 191° South 425 489 38,400  Level Aus ATC (RADAR)
02:26AM -24.7487 117.8078 190° South 425 489 38,400 -60 Level Aus ATC (RADAR)
02:28AM -24.8946 117.7800 190° South 425 489 38,300  Descending Aus ATC (RADAR)
02:28AM -24.9623 117.7661 191° South 424 488 38,400  Climbing Aus ATC (RADAR)
02:30AM -25.1276 117.7346 190° South 423 487 38,300 -60 Descending Aus ATC (RADAR)
02:30AM -25.1759 117.7250 190° South 422 486 38,300 60 Level Aus ATC (RADAR)
02:31AM -25.3204 117.6972 190° South 421 484 38,400  Climbing Aus ATC (RADAR)
02:32AM -25.3881 117.6837 190° South 421 484 38,400  Level Aus ATC (RADAR)
02:33AM -25.4746 117.6663 190° South 420 483 38,400  Level Aus ATC (RADAR)
02:33AM -25.5420 117.6529 190° South 420 483 38,400  Level Aus ATC (RADAR)
02:34AM -25.6381 117.6350 190° South 419 482 38,400  Level Aus ATC (RADAR)
02:35AM -25.7248 117.6186 190° South 420 483 38,400  Level Aus ATC (RADAR)
02:35AM -25.7534 117.6124 191° South 420 483 38,400  Level Aus ATC (RADAR)
02:36AM -25.8399 117.5947 190° South 420 483 38,400  Level Aus ATC (RADAR)
02:36AM -25.9070 117.5813 190° South 419 482 38,400 -60 Level Aus ATC (RADAR)
02:37AM -26.0409 117.5541 190° South 419 482 38,300 -120 Descending Aus ATC (RADAR)
02:38AM -26.0696 117.5486 190° South 419 482 38,300 60 Level Aus ATC (RADAR)
02:39AM -26.1839 117.5262 190° South 417 480 38,400 60 Climbing Aus ATC (RADAR)
02:39AM -26.2126 117.5207 190° South 416 479 38,400  Level Aus ATC (RADAR)
02:40AM -26.3457 117.4941 190° South 417 480 38,400  Level Aus ATC (RADAR)
02:41AM -26.3934 117.4849 190° South 416 479 38,400 -120 Level Aus ATC (RADAR)
02:41AM -26.4603 117.4724 189° South 417 480 38,300 -120 Descending Aus ATC (RADAR)
02:42AM -26.5558 117.4536 190° South 417 480 38,300 60 Level Aus ATC (RADAR)
02:43AM -26.6319 117.4387 190° South 417 480 38,400 60 Climbing Aus ATC (RADAR)
02:43AM -26.7273 117.4190 190° South 417 480 38,400  Level Aus ATC (RADAR)
02:44AM -26.7941 117.4055 190° South 418 481 38,400  Level Aus ATC (RADAR)
02:45AM -26.9469 117.3758 190° South 417 480 38,400  Level Aus ATC (RADAR)
02:46AM -26.9756 117.3701 190° South 418 481 38,400 -180 Level Aus ATC (RADAR)
02:46AM -27.0428 117.3603 187° South 417 480 38,300  Descending Aus ATC (RADAR)
02:47AM -27.1666 117.3347 190° South 418 481 38,400  Climbing Aus ATC (RADAR)
02:52AM -27.7236 117.2199 190° South 424 488 38,400  Level Aus ATC (RADAR)
02:53AM -27.7906 117.2059 190° South 422 486 38,400  Level Aus ATC (RADAR)
02:53AM -27.8870 117.1857 190° South 423 487 38,400  Level Aus ATC (RADAR)
02:54AM -27.9450 117.1741 190° South 424 488 38,400  Level Aus ATC (RADAR)
02:55AM -28.0416 117.1552 190° South 423 487 38,400  Level Aus ATC (RADAR)
02:55AM -28.0969 117.1383 195° South 417 480 38,400  Level Aus ATC (RADAR)
02:56AM -28.1331 117.1231 200° South 417 480 38,400 -420 Level Aus ATC (RADAR)
02:56AM -28.1976 117.1253 191° South 413 475 38,000 -360 Descending FlightAware ADS-B
02:57AM -28.2593 117.1125 191° South 413 475 38,000  Level FlightAware ADS-B
02:57AM -28.3284 117.0983 190° South 422 486 38,000  Level FlightAware ADS-B
02:58AM -28.3820 117.0870 191° South 413 475 38,000  Level FlightAware ADS-B
02:58AM -28.4423 117.0745 190° South 422 486 38,000  Level FlightAware ADS-B
02:59AM -28.5018 117.0624 190° South 423 487 38,000  Level FlightAware ADS-B
02:59AM -28.5594 117.0507 190° South 424 488 38,000  Level FlightAware ADS-B
03:00AM -28.6171 117.0390 190° South 426 490 38,000  Level FlightAware ADS-B
03:00AM -28.6756 117.0269 191° South 426 490 38,000  Level FlightAware ADS-B
03:01AM -28.7338 117.0146 190° South 427 491 38,000  Level FlightAware ADS-B
03:01AM -28.7938 117.0022 190° South 428 493 38,000  Level FlightAware ADS-B
03:02AM -28.8535 116.9900 190° South 429 494 38,000  Level FlightAware ADS-B
03:03AM -28.9315 116.9743 190° South 429 494 38,000  Level FlightAware ADS-B
03:03AM -28.9872 116.9626 191° South 427 491 38,000  Level FlightAware ADS-B
03:04AM -29.0669 116.9459 191° South 427 491 38,000  Level FlightAware ADS-B
03:04AM -29.1261 116.9332 190° South 427 491 38,000  Level FlightAware ADS-B
03:05AM -29.2074 116.9164 190° South 427 491 38,000  Level FlightAware ADS-B
03:05AM -29.2634 116.9049 190° South 426 490 38,000  Level FlightAware ADS-B
03:06AM -29.3430 116.8883 190° South 426 490 38,000  Level FlightAware ADS-B
03:07AM -29.4012 116.8760 190° South 426 490 38,000  Level FlightAware ADS-B
03:07AM -29.4597 116.8638 190° South 426 490 38,000  Level FlightAware ADS-B
03:08AM -29.5208 116.8509 190° South 426 490 38,000  Level FlightAware ADS-B
03:08AM -29.5797 116.8385 190° South 425 489 38,000  Level FlightAware ADS-B
03:09AM -29.6372 116.8264 190° South 425 489 38,000  Level FlightAware ADS-B
03:09AM -29.6956 116.8141 191° South 424 488 38,000  Level FlightAware ADS-B
03:10AM -29.7531 116.8020 191° South 423 487 38,000  Level FlightAware ADS-B
03:10AM -29.8108 116.7897 191° South 422 486 38,000  Level FlightAware ADS-B
03:11AM -29.8663 116.7780 191° South 422 486 38,000  Level FlightAware ADS-B
03:11AM -29.9479 116.7608 191° South 413 475 38,000 240 Level FlightAware ADS-B
03:12AM -30.0080 116.7440 191° South 414 476 38,300  Climbing Aus ATC (RADAR)
03:12AM -30.0244 116.7446 191° South 413 475 38,000 -480 Descending FlightAware ADS-B
03:12AM -30.0838 116.7320 191° South 412 474 38,000  Level FlightAware ADS-B
03:13AM -30.1409 116.7197 191° South 413 475 38,000  Level FlightAware ADS-B
03:13AM -30.1984 116.7074 191° South 423 487 38,000  Level FlightAware ADS-B
03:14AM -30.2602 116.6944 190° South 423 487 38,000 -720 Level FlightAware ADS-B
03:14AM -30.3183 116.6822 191° South 406 467 37,300 -2,160 Descending FlightAware ADS-B
03:15AM -30.3931 116.6662 191° South 410 472 35,500 -2,580 Descending FlightAware ADS-B
03:16AM -30.4506 116.6539 191° South 410 472 34,400 -2,220 Descending FlightAware ADS-B
03:16AM -30.5073 116.6416 191° South 413 475 33,300 -2,280 Descending FlightAware ADS-B
03:17AM -30.5624 116.6277 196° South 406 467 32,100 -2,280 Descending FlightAware ADS-B
03:17AM -30.6201 116.6060 199° South 388 447 31,000 -2,100 Descending FlightAware ADS-B
03:18AM -30.6704 116.5865 199° South 379 436 30,000 -2,040 Descending FlightAware ADS-B
03:18AM -30.7224 116.5660 199° South 372 428 29,000 -2,040 Descending FlightAware ADS-B
03:19AM -30.7715 116.5468 199° South 373 429 28,000 -1,980 Descending FlightAware ADS-B
03:19AM -30.8205 116.5277 199° South 359 413 27,000 -1,860 Descending FlightAware ADS-B
03:20AM -30.8825 116.5038 199° South 359 413 25,800 -1,860 Descending FlightAware ADS-B
03:21AM -30.9449 116.4792 199° South 356 410 24,600 -1,920 Descending FlightAware ADS-B
03:21AM -30.9919 116.4607 199° South 343 395 23,600 -1,920 Descending FlightAware ADS-B
03:22AM -31.0374 116.4430 199° South 338 389 22,700 -1,800 Descending FlightAware ADS-B
03:22AM -31.0830 116.4253 198° South 342 394 21,800 -1,740 Descending FlightAware ADS-B
03:23AM -31.1278 116.4079 199° South 343 395 21,000 -1,740 Descending FlightAware ADS-B
03:23AM -31.1733 116.3899 199° South 339 390 20,100 -1,920 Descending FlightAware ADS-B
03:24AM -31.2192 116.3717 199° South 344 396 19,100 -1,920 Descending FlightAware ADS-B
03:24AM -31.2789 116.3481 199° South 340 391 17,900 -1,740 Descending FlightAware ADS-B
03:25AM -31.3228 116.3308 199° South 337 388 17,100 -1,740 Descending FlightAware ADS-B
03:25AM -31.3677 116.3131 199° South 325 374 16,200 -1,440 Descending FlightAware ADS-B
03:26AM -31.4103 116.2961 201° Southwest 308 354 15,700 -1,140 Descending FlightAware ADS-B
03:26AM -31.4483 116.2736 210° Southwest 297 342 15,100 -1,260 Descending FlightAware ADS-B
03:27AM -31.4882 116.2479 209° Southwest 299 344 14,400 -1,380 Descending FlightAware ADS-B
03:27AM -31.5235 116.2254 209° Southwest 295 339 13,700 -1,320 Descending FlightAware ADS-B
03:28AM -31.5591 116.2027 209° Southwest 291 335 13,100 -1,320 Descending FlightAware ADS-B
03:28AM -31.5926 116.1812 210° Southwest 281 323 12,400 -1,440 Descending FlightAware ADS-B
03:29AM -31.6300 116.1572 209° Southwest 279 321 11,700 -1,440 Descending FlightAware ADS-B
03:29AM -31.6612 116.1373 209° Southwest 293 337 11,000 -1,560 Descending FlightAware ADS-B
03:30AM -31.6991 116.1129 209° Southwest 297 342 10,100 -1,800 Descending FlightAware ADS-B
03:30AM -31.7377 116.0880 209° Southwest 292 336 9,200 -1,620 Descending FlightAware ADS-B
03:31AM -31.7562 116.0786 196° South 300 345 8,800 -1,500 Descending FlightAware ADS-B
03:31AM -31.7887 116.0703 191° South 292 336 8,200 -1,680 Descending FlightAware ADS-B
03:31AM -31.8168 116.0646 191° South 292 336 7,700 -1,680 Descending FlightAware ADS-B
03:32AM -31.8454 116.0690 164° South 289 333 7,100 -1,020 Descending FlightAware ADS-B
03:32AM -31.8923 116.0930 156° South 298 343 6,700 -420 Descending FlightAware ADS-B
03:33AM -31.9137 116.1040 156° South 248 285 6,700 -300 Level FlightAware ADS-B
03:33AM -31.9347 116.1148 157° South 250 288 6,500 -1,740 Descending FlightAware ADS-B
03:33AM -31.9610 116.1278 158° South 259 298 5,500 -2,820 Descending FlightAware ADS-B
03:33AM -31.9761 116.1292 187° South 259 298 5,100 -1,200 Descending FlightAware ADS-B
03:34AM -31.9959 116.1210 204° Southwest 248 285 4,900 -600 Descending FlightAware ADS-B
03:34AM -32.0189 116.1106 201° Southwest 240 276 4,700 -780 Descending FlightAware ADS-B
03:34AM -32.0396 116.1013 201° Southwest 229 264 4,400 -1,200 Descending FlightAware ADS-B
03:35AM -32.0597 116.0913 214° Southwest 212 244 3,900 -1,440 Descending FlightAware ADS-B
03:35AM -32.0655 116.0838 236° Southwest 207 238 3,700 -1,200 Descending FlightAware ADS-B
03:35AM -32.0684 116.0729 259° West 199 229 3,500 -600 Descending FlightAware ADS-B
03:35AM -32.0685 116.0693 271° West 190 219 3,500 -600 Level FlightAware ADS-B
03:35AM -32.0655 116.0545 285° West 182 209 3,300 -840 Descending FlightAware ADS-B
03:36AM -32.0632 116.0433 281° West 179 206 3,100 -900 Descending FlightAware ADS-B
03:36AM -32.0579 116.0182 282° West 174 200 2,700 -1,080 Descending FlightAware ADS-B
03:36AM -32.0546 116.0035 282° West 173 199 2,400 -1,080 Descending FlightAware ADS-B
03:37AM -32.0496 115.9806 282° West 174 200 2,000 -900 Descending FlightAware ADS-B
03:37AM -32.0462 115.9649 285° West 182 209 1,800 -900 Descending FlightAware ADS-B
03:37AM -32.0368 115.9420 321° Northwest 166 191 1,400 -1,020 Descending FlightAware ADS-B
03:38AM -32.0322 115.9397 349° North 132 152 1,300 -900 Descending FlightAware ADS-B
03:38AM -32.0252 115.9402 North 128 147 1,100 -840 Descending FlightAware ADS-B
03:38AM -32.0156 115.9430 14° North 133 153 900 -780 Descending FlightAware ADS-B
03:38AM -32.0015 115.9475 15° North 139 160 600 -900 Descending FlightAware ADS-B
03:39AM -31.9893 115.9509 14° North 135 155 300 -780 Descending FlightAware ADS-B
03:39AM -31.9802 115.9535 15° North 139 160 100 -600 Descending FlightAware ADS-B
03:40AM -31.9553 115.9607 15° North 136 157 -240 Descending FlightAware ADS-B